createdAt,value
2023-05-04T00:01:54.561Z,100565.03
2023-05-04T00:06:57.618Z,100571.06
2023-05-04T00:12:00.589Z,100559.69
2023-05-04T00:17:06.578Z,100562.19
2023-05-04T00:22:09.634Z,100557.03
2023-05-04T00:27:12.707Z,100560.06
2023-05-04T00:32:15.681Z,100562.06
2023-05-04T00:37:18.810Z,100554.59
2023-05-04T00:42:21.825Z,100558.44
2023-05-04T00:47:24.908Z,100552.47
2023-05-04T00:52:29.259Z,100548.28
2023-05-04T00:57:32.234Z,100553.97
2023-05-04T01:02:35.627Z,100544.84
2023-05-04T01:07:56.186Z,100549.16
2023-05-04T01:13:11.734Z,100547.69
2023-05-04T01:18:15.451Z,100543.50
2023-05-04T01:23:18.508Z,100544.22
2023-05-04T01:28:34.972Z,100543.56
2023-05-04T01:33:38.723Z,100533.06
2023-05-04T01:38:42.751Z,100533.53
2023-05-04T01:43:45.675Z,100538.22
2023-05-04T01:48:48.745Z,100530.56
2023-05-04T01:53:51.776Z,100518.47
2023-05-04T01:58:54.695Z,100529.28
2023-05-04T02:03:58.060Z,100525.78
2023-05-04T02:09:01.364Z,100530.97
2023-05-04T02:14:04.494Z,100523.31
2023-05-04T02:19:07.352Z,100528.13
2023-05-04T02:24:10.681Z,100523.16
2023-05-04T02:29:13.853Z,100526.84
2023-05-04T02:34:16.777Z,100523.16
2023-05-04T02:39:20.045Z,100523.34
2023-05-04T02:44:23.223Z,100530.19
2023-05-04T02:49:26.405Z,100520.06
2023-05-04T02:54:29.447Z,100523.72
2023-05-04T02:59:32.260Z,100528.75
2023-05-04T03:04:35.365Z,100527.59
2023-05-04T03:09:38.511Z,100533.44
2023-05-04T03:14:41.546Z,100539.44
2023-05-04T03:19:44.341Z,100547.75
2023-05-04T03:24:47.366Z,100551.91
2023-05-04T03:29:50.795Z,100559.75
2023-05-04T03:34:53.879Z,100557.41
2023-05-04T03:39:56.724Z,100568.41
2023-05-04T03:45:01.085Z,100564.22
2023-05-04T03:50:06.604Z,100563.88
2023-05-04T03:55:12.472Z,100573.38
2023-05-04T04:00:16.451Z,100572.69
2023-05-04T04:05:19.640Z,100566.22
2023-05-04T04:10:22.643Z,100571.00
2023-05-04T04:15:25.563Z,100572.19
2023-05-04T04:20:28.715Z,100577.50
2023-05-04T04:25:32.290Z,100590.34
2023-05-04T04:30:35.332Z,100581.88
2023-05-04T04:35:38.496Z,100575.38
2023-05-04T04:40:42.126Z,100588.00
2023-05-04T04:45:45.336Z,100589.84
2023-05-04T04:50:48.808Z,100577.88
2023-05-04T04:55:52.292Z,100579.75
2023-05-04T05:00:58.370Z,100584.88
2023-05-04T05:06:02.226Z,100580.03
2023-05-04T05:11:05.514Z,100598.31
2023-05-04T05:16:08.589Z,100590.31
2023-05-04T05:21:11.757Z,100591.28
2023-05-04T05:26:14.841Z,100596.03
2023-05-04T05:31:18.388Z,100590.81
2023-05-04T05:36:21.509Z,100592.03
2023-05-04T05:41:24.227Z,100589.31
2023-05-04T05:46:28.263Z,100591.03
2023-05-04T05:51:31.424Z,100592.28
2023-05-04T05:56:34.481Z,100587.72
2023-05-04T06:01:37.580Z,100594.78
2023-05-04T06:06:40.608Z,100592.50
2023-05-04T06:11:43.778Z,100609.69
2023-05-04T06:16:46.722Z,100609.16
2023-05-04T06:21:49.928Z,100621.75
2023-05-04T06:26:52.849Z,100619.63
2023-05-04T06:31:56.952Z,100613.47
2023-05-04T06:37:00.157Z,100619.00
2023-05-04T06:42:03.566Z,100614.28
2023-05-04T06:47:09.582Z,100626.72
2023-05-04T06:52:12.516Z,100618.22
2023-05-04T06:57:15.660Z,100624.47
2023-05-04T07:02:18.571Z,100615.94
2023-05-04T07:07:21.592Z,100617.69
2023-05-04T07:12:24.545Z,100605.53
2023-05-04T07:17:27.382Z,100610.91
2023-05-04T07:22:34.496Z,100612.41
2023-05-04T07:27:37.994Z,100610.38
2023-05-04T07:32:41.628Z,100613.94
2023-05-04T07:37:45.219Z,100612.44
2023-05-04T07:42:48.724Z,100625.16
2023-05-04T07:47:52.757Z,100620.84
2023-05-04T07:52:56.044Z,100606.25
2023-05-04T07:57:59.069Z,100608.66
2023-05-04T08:03:02.112Z,100625.66
2023-05-04T08:08:05.336Z,100622.84
2023-05-04T08:13:08.409Z,100631.63
2023-05-04T08:18:11.459Z,100632.22
2023-05-04T08:23:14.596Z,100627.47
2023-05-04T08:28:18.009Z,100632.59
2023-05-04T08:33:20.940Z,100622.88
2023-05-04T08:38:24.747Z,100634.13
2023-05-04T08:43:29.439Z,100627.41
2023-05-04T08:48:35.645Z,100628.28
2023-05-04T08:53:43.542Z,100628.47
2023-05-04T08:58:51.407Z,100627.44
2023-05-04T09:03:55.047Z,100629.94
2023-05-04T09:08:58.494Z,100619.75
2023-05-04T09:14:01.563Z,100622.22
2023-05-04T09:19:16.492Z,100600.38
2023-05-04T09:24:31.929Z,100604.69
2023-05-04T09:29:39.400Z,100597.19
2023-05-04T09:34:53.870Z,100605.03
2023-05-04T09:39:58.994Z,100603.50
2023-05-04T09:45:10.944Z,100591.53
2023-05-04T09:50:21.077Z,100593.22
2023-05-04T09:55:25.350Z,100591.88
2023-05-04T10:00:29.677Z,100587.09
2023-05-04T10:05:32.595Z,100582.34
2023-05-04T10:10:39.767Z,100571.91
2023-05-04T10:16:10.218Z,100570.13
2023-05-04T10:21:37.291Z,100564.19
2023-05-04T10:27:05.784Z,100556.66
2023-05-04T10:32:22.964Z,100549.63
2023-05-04T10:37:26.225Z,100550.69
2023-05-04T10:42:29.320Z,100537.47
2023-05-04T10:47:38.038Z,100533.22
2023-05-04T10:52:49.810Z,100531.25
2023-05-04T10:57:59.363Z,100520.41
2023-05-04T11:03:07.494Z,100512.81
2023-05-04T11:08:24.834Z,100503.81
2023-05-04T11:13:31.991Z,100504.22
2023-05-04T11:18:37.396Z,100505.34
2023-05-04T11:23:40.494Z,100495.28
2023-05-04T11:28:44.205Z,100502.47
2023-05-04T11:33:55.120Z,100490.03
2023-05-04T11:38:58.654Z,100488.09
2023-05-04T11:44:03.446Z,100480.22
2023-05-04T11:49:06.769Z,100479.06
2023-05-04T11:54:21.768Z,100472.16
2023-05-04T11:59:24.966Z,100468.94
2023-05-04T12:04:32.642Z,100472.22
2023-05-04T12:09:49.484Z,100467.28
2023-05-04T12:14:54.621Z,100468.63
2023-05-04T12:19:57.877Z,100464.38
2023-05-04T12:25:01.049Z,100469.97
2023-05-04T12:30:04.555Z,100466.50
2023-05-04T12:35:08.201Z,100464.31
2023-05-04T12:40:27.346Z,100453.63
2023-05-04T12:45:31.410Z,100445.31
2023-05-04T12:50:34.335Z,100444.94
2023-05-04T12:55:37.979Z,100441.72
2023-05-04T13:00:41.365Z,100426.91
2023-05-04T13:05:47.341Z,100434.72
2023-05-04T13:10:51.242Z,100438.66
2023-05-04T13:15:54.573Z,100430.22
2023-05-04T13:20:57.845Z,100423.25
2023-05-04T13:26:01.217Z,100413.13
2023-05-04T13:31:09.132Z,100408.59
2023-05-04T13:36:12.257Z,100409.50
2023-05-04T13:41:15.842Z,100399.28
2023-05-04T13:46:18.748Z,100394.44
2023-05-04T13:51:21.773Z,100397.59
2023-05-04T13:56:24.573Z,100404.97
2023-05-04T14:01:27.703Z,100401.84
2023-05-04T14:06:31.027Z,100395.16
2023-05-04T14:11:34.030Z,100394.53
2023-05-04T14:16:37.534Z,100380.59
2023-05-04T14:21:40.993Z,100388.59
2023-05-04T14:26:43.998Z,100382.34
2023-05-04T14:31:47.234Z,100374.22
2023-05-04T14:36:53.130Z,100377.69
2023-05-04T14:41:58.013Z,100367.50
2023-05-04T14:47:04.206Z,100367.97
2023-05-04T14:52:08.443Z,100368.38
2023-05-04T14:57:11.649Z,100370.16
2023-05-04T15:02:14.834Z,100369.53
2023-05-04T15:07:20.688Z,100357.38
2023-05-04T15:12:26.687Z,100369.06
2023-05-04T15:17:31.089Z,100362.53
2023-05-04T15:22:34.081Z,100371.16
2023-05-04T15:27:37.199Z,100373.06
2023-05-04T15:32:40.262Z,100369.06
2023-05-04T15:37:43.222Z,100370.88
2023-05-04T15:42:46.674Z,100374.28
2023-05-04T15:47:49.652Z,100365.19
2023-05-04T15:52:53.237Z,100370.03
2023-05-04T15:57:56.279Z,100357.78
2023-05-04T16:03:01.237Z,100354.72
2023-05-04T16:08:04.482Z,100353.31
2023-05-04T16:13:08.604Z,100349.78
2023-05-04T16:18:12.884Z,100348.72
2023-05-04T16:23:17.806Z,100353.09
2023-05-04T16:28:20.821Z,100363.69
2023-05-04T16:33:25.251Z,100362.25
2023-05-04T16:38:28.194Z,100374.19
2023-05-04T16:43:32.076Z,100380.03
2023-05-04T16:48:36.744Z,100387.31
2023-05-04T16:53:39.821Z,100376.72
2023-05-04T16:58:42.824Z,100385.47
2023-05-04T17:03:46.005Z,100391.78
2023-05-04T17:08:49.215Z,100394.47
2023-05-04T17:13:52.055Z,100394.66
2023-05-04T17:18:55.187Z,100396.22
2023-05-04T17:23:58.279Z,100405.38
2023-05-04T17:29:01.378Z,100415.69
2023-05-04T17:34:04.544Z,100417.34
2023-05-04T17:39:07.329Z,100417.72
2023-05-04T17:44:10.805Z,100431.72
2023-05-04T17:49:14.989Z,100427.72
2023-05-04T17:54:18.051Z,100440.47
2023-05-04T17:59:21.178Z,100452.56
2023-05-04T18:04:24.248Z,100449.63
2023-05-04T18:09:27.220Z,100450.56
2023-05-04T18:14:30.810Z,100460.38
2023-05-04T18:19:37.309Z,100460.09
2023-05-04T18:24:40.035Z,100462.28
2023-05-04T18:29:43.166Z,100473.50
2023-05-04T18:34:51.123Z,100477.06
2023-05-04T18:39:54.353Z,100482.94
2023-05-04T18:44:57.519Z,100489.66
2023-05-04T18:50:01.497Z,100497.34
2023-05-04T18:55:06.622Z,100494.69
2023-05-04T19:00:11.687Z,100507.38
2023-05-04T19:05:15.249Z,100509.72
2023-05-04T19:10:18.480Z,100515.34
2023-05-04T19:15:23.243Z,100514.44
2023-05-04T19:20:27.902Z,100516.81
2023-05-04T19:25:35.093Z,100523.25
2023-05-04T19:30:39.882Z,100531.91
2023-05-04T19:35:42.882Z,100539.31
2023-05-04T19:40:45.963Z,100533.84
2023-05-04T19:45:49.697Z,100537.81
2023-05-04T19:50:52.738Z,100537.25
2023-05-04T19:55:55.850Z,100538.72
2023-05-04T20:00:59.271Z,100538.78
2023-05-04T20:06:03.638Z,100547.25
2023-05-04T20:11:06.908Z,100542.31
2023-05-04T20:16:09.903Z,100551.41
2023-05-04T20:21:13.180Z,100554.47
2023-05-04T20:26:16.496Z,100561.09
2023-05-04T20:31:19.446Z,100557.69
2023-05-04T20:36:22.848Z,100557.88
2023-05-04T20:41:25.869Z,100568.22
2023-05-04T20:46:28.972Z,100584.72
2023-05-04T20:51:32.505Z,100596.72
2023-05-04T20:56:35.649Z,100590.72
2023-05-04T21:01:38.696Z,100590.00
2023-05-04T21:06:41.988Z,100595.16
2023-05-04T21:11:45.072Z,100591.66
2023-05-04T21:16:48.078Z,100584.31
2023-05-04T21:21:51.409Z,100596.31
2023-05-04T21:26:54.343Z,100588.63
2023-05-04T21:31:57.692Z,100587.81
2023-05-04T21:37:00.879Z,100591.78
2023-05-04T21:42:04.066Z,100596.63
2023-05-04T21:47:08.414Z,100594.59
2023-05-04T21:52:11.283Z,100603.56
2023-05-04T21:57:14.554Z,100596.66
2023-05-04T22:02:17.615Z,100594.94
2023-05-04T22:07:20.559Z,100600.47
2023-05-04T22:12:23.574Z,100607.00
2023-05-04T22:17:26.805Z,100611.88
2023-05-04T22:22:29.769Z,100604.56
2023-05-04T22:27:32.788Z,100601.91
2023-05-04T22:32:35.691Z,100603.44
2023-05-04T22:37:38.684Z,100608.63
2023-05-04T22:42:44.836Z,100606.34
2023-05-04T22:47:48.004Z,100606.38
2023-05-04T22:52:50.960Z,100599.41
2023-05-04T22:57:54.163Z,100595.59
2023-05-04T23:02:57.346Z,100591.66
2023-05-04T23:08:00.492Z,100599.56
2023-05-04T23:13:03.917Z,100595.28
2023-05-04T23:18:07.310Z,100589.84
2023-05-04T23:23:10.518Z,100591.53
2023-05-04T23:28:13.481Z,100585.88
2023-05-04T23:33:16.487Z,100585.56
2023-05-04T23:38:19.418Z,100587.88
2023-05-04T23:43:23.781Z,100588.53
2023-05-04T23:48:28.352Z,100584.34
2023-05-04T23:53:32.170Z,100584.31
2023-05-04T23:58:35.626Z,100576.63
